LiveATC.Net - Listen to live air traffic control over the Internet!


ICAO: YSBK  IATA: BWU   Airport: Sydney Bankstown Airport
City: Bankstown   State/Province: New South Wales
Country: Australia   Continent: Oceania
YSSY METAR Weather: YSSY 060600Z 15017KT 4000 -SHRA FEW008 BKN020 BKN035 16/14 Q1015
YSBK Flight Activity (FlightAware)
YSBK Webcam:  (Airport Webcams) 

YSBK ATIS
Feed Status: UP   Listeners: 1
Listen in your browser - HTML5 player (in browser, HTML5)
Click here to listen with your own player (launches your MP3 player)
Archive Access: YSBK ATIS
FacilityFrequency
Bankstown ATIS120.900
NOTE: Feed provided by Bryan Ford

YSBK Tower
Feed Status: UP   Listeners: 1
Listen in your browser - HTML5 player (in browser, HTML5)
Click here to listen with your own player (launches your MP3 player)
Archive Access: YSBK Tower
FacilityFrequency
Bankstown Tower132.800

NOTICE

Unauthorized use prohibited. See LiveATC.net Terms of Service


Airport/ARTCC Code
Frequency Search
(e.g., 124.400, 128.75)
Site-wide search
 


Browse Feeds
Top 50 Feeds
HF Oceanic Feeds
Coverage Map
Bad Weather Areas

LiveATC FAQ
Offer LiveATC feed
Contact LiveATC.net
Press Inquiries

LiveATC on iPhone
LiveATC on Android

LiveATC Mobile
(Mobile browser)

ATC Audio Archives
Interesting Recordings

LiveATC Forums


Home Page
About LiveATC.net


Terms of Use
Privacy Policy

AIRMETs/SIGMETs

FAA Airport Status
NAS Status
Arrival Demand


Server Software By:
Icecast.org
Liquidsoap